Time;durP1;ratioP1;P1;durP2;ratioP2;P2;SDS_P1;SDS_P2;PMS_P1;PMS_P2;Temp;Humidity;BMP_temperature;BMP_pressure;BME280_temperature;BME280_humidity;BME280_pressure;Samples;Min_cycle;Max_cycle;Signal;HPM_P1;HPM_P2
2024/03/16 00:02:00;;;;;;;65.90;37.20;;;;;;;6.04;79.28;101582.42;107617;1256;108282;-64
2024/03/16 00:04:29;;;;;;;60.90;36.50;;;;;;;6.03;79.28;101580.50;107594;1250;97893;-63
2024/03/16 00:06:58;;;;;;;64.80;35.70;;;;;;;6.01;79.38;101581.13;107671;1251;97707;-65
2024/03/16 00:09:28;;;;;;;65.50;36.60;;;;;;;6.02;79.50;101583.27;107657;1255;111918;-64
2024/03/16 00:11:56;;;;;;;64.20;37.00;;;;;;;6.01;79.44;101583.48;107629;1251;108382;-63
2024/03/16 00:14:24;;;;;;;72.70;38.90;;;;;;;6.07;79.59;101582.59;107616;1254;108086;-65
2024/03/16 00:16:53;;;;;;;64.40;37.90;;;;;;;6.12;79.40;101579.06;107629;1251;97908;-66
2024/03/16 00:19:21;;;;;;;60.40;34.70;;;;;;;6.13;79.48;101578.68;107642;1257;98353;-65
2024/03/16 00:21:52;;;;;;;66.10;36.80;;;;;;;6.17;79.19;101578.63;107604;1256;111371;-64
2024/03/16 00:24:20;;;;;;;63.90;36.20;;;;;;;6.19;79.12;101580.98;107601;1251;107887;-66
2024/03/16 00:26:48;;;;;;;62.50;36.20;;;;;;;6.18;78.90;101580.56;107507;1255;107846;-66
2024/03/16 00:29:17;;;;;;;67.50;38.30;;;;;;;6.16;78.85;101575.67;107530;1251;97854;-67
2024/03/16 00:31:48;;;;;;;65.50;35.70;;;;;;;6.17;79.13;101576.48;107505;1253;98380;-66
2024/03/16 00:34:17;;;;;;;65.60;37.60;;;;;;;6.15;78.90;101579.80;107468;1255;111409;-65
2024/03/16 00:36:45;;;;;;;67.80;37.20;;;;;;;6.10;78.74;101577.25;107607;1254;108338;-65
2024/03/16 00:39:18;;;;;;;66.70;35.60;;;;;;;6.03;78.75;101581.55;107604;1253;109349;-66
2024/03/16 00:41:47;;;;;;;70.00;37.50;;;;;;;5.94;78.81;101583.41;107617;1254;97880;-66
2024/03/16 00:44:15;;;;;;;68.30;35.30;;;;;;;5.95;78.96;101582.30;107636;1251;98382;-64
2024/03/16 00:46:44;;;;;;;69.40;37.00;;;;;;;5.95;78.89;101581.78;107557;1251;111013;-65
2024/03/16 00:49:12;;;;;;;65.00;34.30;;;;;;;5.95;78.99;101580.36;107591;1251;108498;-63
2024/03/16 00:51:41;;;;;;;59.60;34.90;;;;;;;5.96;78.94;101581.73;107536;1251;107514;-65
2024/03/16 00:54:11;;;;;;;62.00;36.90;;;;;;;5.94;78.76;101577.54;107627;1254;97822;-64
2024/03/16 00:56:39;;;;;;;68.20;35.60;;;;;;;5.93;78.75;101574.05;107569;1251;98450;-63
2024/03/16 00:59:08;;;;;;;60.40;35.90;;;;;;;5.97;79.20;101576.86;107545;1251;111751;-64
2024/03/16 01:01:36;;;;;;;69.50;35.00;;;;;;;6.02;79.19;101576.45;107592;1250;108410;-65
2024/03/16 07:46:27;;;;;;;54.50;31.70;;;;;;;9.44;69.93;101670.82;107541;1251;112235;-65
2024/03/16 07:49:03;;;;;;;68.10;32.90;;;;;;;9.54;69.53;101668.69;107641;1250;108362;-63
2024/03/16 07:51:36;;;;;;;59.00;33.30;;;;;;;9.64;69.27;101665.68;107551;1251;108140;-64
2024/03/16 07:54:08;;;;;;;55.30;30.90;;;;;;;9.72;68.50;101666.95;107598;1250;97837;-64
2024/03/16 07:56:37;;;;;;;78.40;31.00;;;;;;;9.81;68.81;101662.72;107122;1251;629906;-64
2024/03/16 07:59:05;;;;;;;61.30;32.30;;;;;;;9.91;68.57;101661.48;107590;1251;112173;-64
2024/03/16 08:01:34;;;;;;;63.80;33.60;;;;;;;9.98;67.55;101660.05;107639;1251;107957;-63
2024/03/16 08:04:02;;;;;;;56.30;31.50;;;;;;;10.03;67.62;101659.73;107587;1251;108253;-63
2024/03/16 08:06:31;;;;;;;52.80;31.40;;;;;;;10.06;66.78;101661.45;107582;1251;97825;-63
2024/03/16 08:08:59;;;;;;;53.00;30.60;;;;;;;10.09;67.04;101659.13;107561;1250;97879;-64
2024/03/16 08:11:30;;;;;;;48.50;26.80;;;;;;;10.18;66.24;101657.18;107611;1251;111015;-64
2024/03/16 08:13:58;;;;;;;50.80;28.20;;;;;;;10.22;64.95;101665.73;107630;1251;107299;-65
2024/03/16 08:16:26;;;;;;;51.60;26.80;;;;;;;10.19;64.53;101664.52;107574;1251;107450;-65
2024/03/16 08:18:54;;;;;;;46.00;24.50;;;;;;;10.17;64.84;101665.17;107557;1254;98446;-64
2024/03/16 08:21:22;;;;;;;42.90;26.10;;;;;;;10.21;63.93;101661.70;107671;1254;97725;-69
2024/03/16 08:23:51;;;;;;;45.80;26.80;;;;;;;10.24;64.36;101663.23;107591;1256;111779;-64
2024/03/16 08:26:19;;;;;;;42.30;23.70;;;;;;;10.29;64.27;101666.64;107685;1253;108009;-63
2024/03/16 08:28:47;;;;;;;53.10;28.30;;;;;;;10.28;63.87;101663.80;107600;1253;108110;-64
2024/03/16 08:31:15;;;;;;;63.60;29.50;;;;;;;10.24;63.79;101659.86;107638;1252;97800;-63
2024/03/16 08:33:44;;;;;;;55.20;30.60;;;;;;;10.24;64.25;101660.92;107625;1251;97838;-64
2024/03/16 08:36:12;;;;;;;66.80;30.10;;;;;;;10.26;64.57;101660.02;107632;1251;111905;-63
2024/03/16 08:38:40;;;;;;;52.70;29.00;;;;;;;10.34;64.45;101656.79;107610;1254;108979;-62
2024/03/16 08:41:09;;;;;;;64.20;28.70;;;;;;;10.42;64.26;101657.41;107620;1253;108204;-62
2024/03/16 08:43:37;;;;;;;47.40;26.40;;;;;;;10.48;63.92;101656.45;107607;1252;97840;-65
2024/03/16 08:46:06;;;;;;;45.20;27.40;;;;;;;10.54;63.49;101658.01;107636;1253;97837;-65
2024/03/16 08:48:35;;;;;;;50.60;26.80;;;;;;;10.64;62.69;101654.02;107595;1256;111854;-64
2024/03/16 08:51:04;;;;;;;52.10;26.80;;;;;;;10.83;63.37;101647.23;107486;1252;107505;-65
2024/03/16 08:53:32;;;;;;;46.10;25.80;;;;;;;11.20;63.84;101649.50;107661;1254;108616;-65
2024/03/16 08:56:06;;;;;;;45.40;27.30;;;;;;;11.50;63.59;101649.45;107629;1252;97858;-64
2024/03/16 08:58:35;;;;;;;57.30;25.90;;;;;;;11.71;62.60;101649.62;107633;1254;97821;-64
2024/03/16 09:01:04;;;;;;;40.80;25.10;;;;;;;11.78;62.69;101644.42;107609;1253;111846;-65
2024/03/16 09:03:32;;;;;;;46.80;25.30;;;;;;;11.85;61.69;101641.52;107689;1253;110364;-64
2024/03/16 09:06:04;;;;;;;49.30;26.80;;;;;;;11.87;61.26;101641.48;107495;1252;107583;-65
2024/03/16 09:08:32;;;;;;;46.10;25.80;;;;;;;11.96;61.86;101640.31;107537;1253;97816;-65
2024/03/16 09:11:00;;;;;;;52.00;25.60;;;;;;;12.16;61.85;101634.42;107603;1253;97734;-63
2024/03/16 09:13:29;;;;;;;39.30;22.90;;;;;;;12.17;60.53;101636.05;107670;1254;111789;-63
2024/03/16 09:15:58;;;;;;;38.80;21.70;;;;;;;12.09;60.49;101632.60;107631;1255;108078;-62
2024/03/16 09:18:26;;;;;;;40.40;22.80;;;;;;;12.12;60.37;101635.42;107664;1253;108527;-65
2024/03/16 09:20:54;;;;;;;41.90;23.00;;;;;;;12.23;59.49;101631.17;107654;1254;97837;-66
2024/03/16 09:23:23;;;;;;;44.70;24.20;;;;;;;12.33;59.41;101624.75;107593;1253;98002;-64
2024/03/16 09:25:55;;;;;;;37.10;20.90;;;;;;;12.47;59.75;101623.64;107642;1253;111997;-64
2024/03/16 09:28:24;;;;;;;37.10;20.80;;;;;;;12.59;58.97;101619.73;107615;1254;107703;-63
2024/03/16 09:30:52;;;;;;;36.60;22.10;;;;;;;12.71;59.01;101618.58;107595;1253;108653;-64
2024/03/16 09:33:24;;;;;;;32.10;19.80;;;;;;;12.83;58.86;101619.65;107610;1254;97911;-63
2024/03/16 09:35:52;;;;;;;30.10;20.20;;;;;;;12.89;58.71;101615.79;107652;1254;97872;-64
2024/03/16 09:38:23;;;;;;;37.80;19.90;;;;;;;12.87;57.75;101617.56;107666;1253;111439;-64
2024/03/16 09:40:52;;;;;;;39.70;20.70;;;;;;;13.03;57.66;101620.36;107632;1254;107523;-63
2024/03/16 09:43:20;;;;;;;36.80;19.50;;;;;;;13.02;57.39;101615.05;107591;1254;106628;-63
2024/03/16 09:45:49;;;;;;;43.50;18.50;;;;;;;13.05;57.58;101615.54;107531;1253;97832;-63
2024/03/16 09:48:18;;;;;;;29.00;17.20;;;;;;;13.14;57.14;101613.66;107657;1252;97813;-63
2024/03/16 09:50:54;;;;;;;39.40;16.80;;;;;;;13.25;55.26;101606.57;107556;1254;113401;-64
2024/03/16 09:53:32;;;;;;;21.90;15.10;;;;;;;13.38;55.16;101609.95;107590;1250;107896;-62
2024/03/16 09:56:10;;;;;;;38.30;15.80;;;;;;;13.48;55.71;101608.23;107571;1250;108145;-63
2024/03/16 09:58:40;;;;;;;28.20;14.40;;;;;;;13.57;55.78;101609.41;107561;1254;97892;-63
2024/03/16 10:01:09;;;;;;;28.40;12.60;;;;;;;13.68;54.57;101601.60;107604;1252;97832;-64
2024/03/16 10:03:37;;;;;;;32.00;12.80;;;;;;;14.64;54.89;101594.59;107541;1251;111017;-64
2024/03/16 10:06:09;;;;;;;23.50;10.50;;;;;;;15.88;54.46;101594.09;107540;1254;108458;-63
2024/03/16 10:08:37;;;;;;;14.30;8.30;;;;;;;16.32;50.67;101592.13;107548;1254;107305;-63
2024/03/16 10:11:10;;;;;;;20.50;8.00;;;;;;;16.19;48.47;101597.61;107601;1254;97834;-64
2024/03/16 10:13:52;;;;;;;52.40;8.90;;;;;;;15.99;49.67;101594.33;107593;1251;97816;-65
2024/03/16 10:16:21;;;;;;;15.80;8.40;;;;;;;15.88;47.21;101595.19;107627;1251;112268;-65
2024/03/16 10:18:52;;;;;;;17.50;8.10;;;;;;;15.64;46.52;101595.50;107575;1251;108721;-65
2024/03/16 10:21:21;;;;;;;11.90;7.30;;;;;;;15.39;47.36;101592.23;107588;1250;108315;-65
2024/03/16 10:23:49;;;;;;;14.10;6.70;;;;;;;15.29;47.33;101591.42;107532;1251;97838;-66
2024/03/16 10:26:17;;;;;;;14.90;7.10;;;;;;;15.24;48.05;101585.08;107612;1251;97923;-65
2024/03/16 10:28:46;;;;;;;10.70;7.10;;;;;;;15.48;47.64;101588.94;107550;1254;111709;-65
2024/03/16 10:31:14;;;;;;;10.10;6.40;;;;;;;16.29;45.75;101590.77;107643;1254;107964;-64
2024/03/16 10:33:43;;;;;;;10.70;5.80;;;;;;;16.89;45.10;101585.12;107622;1253;108098;-64
2024/03/16 10:36:17;;;;;;;7.60;5.40;;;;;;;17.11;44.24;101581.95;107472;1252;97831;-66
2024/03/16 10:38:47;;;;;;;9.00;5.70;;;;;;;17.53;43.78;101580.70;107503;1254;98351;-66
2024/03/16 10:41:17;;;;;;;13.70;6.50;;;;;;;17.85;44.12;101581.84;107690;1254;112932;-67
2024/03/16 10:43:46;;;;;;;13.50;7.30;;;;;;;17.67;41.91;101580.16;107665;1254;107436;-65
2024/03/16 10:46:15;;;;;;;19.60;6.50;;;;;;;17.29;41.87;101580.64;107610;1253;106824;-64
2024/03/16 10:48:44;;;;;;;10.90;5.60;;;;;;;17.20;42.79;101578.52;107602;1254;97854;-65
2024/03/16 10:51:19;;;;;;;11.00;6.40;;;;;;;17.27;42.85;101572.58;107642;1254;97930;-65
2024/03/16 10:53:47;;;;;;;13.80;6.60;;;;;;;17.06;42.75;101574.66;107618;1254;111472;-64
2024/03/16 10:56:17;;;;;;;11.10;7.10;;;;;;;16.77;43.22;101575.48;107617;1255;108324;-63
2024/03/16 10:58:45;;;;;;;11.00;6.60;;;;;;;16.49;43.02;101571.98;107648;1254;108777;-64
2024/03/16 11:01:18;;;;;;;11.80;7.70;;;;;;;16.47;43.46;101565.26;107577;1251;97847;-63
2024/03/16 11:03:51;;;;;;;;;;;;;;;17.42;43.69;101557.48;107631;1251;97720;-64
2024/03/16 11:06:21;;;;;;;14.40;6.50;;;;;;;18.51;42.51;101552.58;107615;1250;111469;-64
2024/03/16 11:08:50;;;;;;;10.70;6.60;;;;;;;19.33;41.51;101549.83;107627;1251;107146;-65
2024/03/16 11:11:23;;;;;;;8.20;5.00;;;;;;;20.57;40.25;101547.36;107596;1251;108455;-64
2024/03/16 11:13:58;;;;;;;17.80;5.40;;;;;;;21.48;38.68;101537.21;107592;1251;97722;-65
2024/03/16 11:16:28;;;;;;;11.30;5.80;;;;;;;21.93;36.13;101536.79;107617;1251;97844;-64
2024/03/16 11:18:58;;;;;;;14.90;6.10;;;;;;;21.62;35.84;101530.11;107623;1251;111177;-63
2024/03/16 11:21:28;;;;;;;12.60;5.80;;;;;;;21.08;36.47;101534.55;107667;1251;108756;-64
2024/03/16 11:24:04;;;;;;;10.70;5.50;;;;;;;20.54;37.97;101534.95;107636;1254;107306;-64
2024/03/16 11:26:36;;;;;;;12.60;5.10;;;;;;;20.25;37.34;101530.92;107651;1251;97722;-63
2024/03/16 11:29:15;;;;;;;13.90;5.20;;;;;;;20.23;36.24;101527.15;107651;1251;97835;-65
2024/03/16 11:31:48;;;;;;;22.50;7.10;;;;;;;20.00;36.63;101527.50;107685;1251;110787;-63
2024/03/16 11:34:18;;;;;;;38.90;11.60;;;;;;;19.72;37.80;101529.30;107639;1250;108376;-63
2024/03/16 11:36:51;;;;;;;31.20;12.30;;;;;;;19.91;39.18;101523.08;107668;1250;108649;-64
2024/03/16 11:39:28;;;;;;;25.80;12.10;;;;;;;20.24;39.35;101522.35;107607;1251;97842;-63
2024/03/16 11:42:05;;;;;;;25.90;10.30;;;;;;;19.85;39.18;101516.07;107625;1251;99497;-63
2024/03/16 11:44:34;;;;;;;23.30;11.20;;;;;;;19.22;40.07;101514.59;107638;1254;112073;-64
2024/03/16 11:47:04;;;;;;;17.70;10.10;;;;;;;18.85;40.64;101511.83;107656;1251;108672;-65
2024/03/16 11:49:34;;;;;;;16.80;11.00;;;;;;;18.61;40.86;101508.62;107640;1251;107714;-64
2024/03/16 11:52:04;;;;;;;20.80;11.20;;;;;;;18.31;41.63;101507.22;107645;1251;97847;-64
2024/03/16 11:54:32;;;;;;;20.70;10.60;;;;;;;18.05;42.11;101507.64;107656;1251;98360;-65
2024/03/16 11:57:01;;;;;;;19.50;11.10;;;;;;;17.93;42.79;101505.92;107631;1251;111823;-65
2024/03/16 11:59:29;;;;;;;19.70;11.20;;;;;;;17.81;42.50;101507.58;107605;1251;108574;-62
2024/03/16 12:01:58;;;;;;;21.00;10.00;;;;;;;17.56;42.35;101505.06;107640;1251;108780;-63
2024/03/16 12:04:28;;;;;;;20.40;11.90;;;;;;;17.29;43.01;101506.90;107695;1251;97898;-63
2024/03/16 12:06:58;;;;;;;27.60;12.00;;;;;;;17.18;43.71;101501.83;107667;1251;97812;-64
2024/03/16 12:09:34;;;;;;;22.60;10.70;;;;;;;17.02;43.92;101501.16;107669;1251;111440;-64
2024/03/16 12:12:07;;;;;;;18.60;10.40;;;;;;;16.81;44.62;101496.63;107664;1251;107539;-66
2024/03/16 12:14:35;;;;;;;16.90;10.50;;;;;;;16.74;44.69;101498.18;107632;1251;108706;-64
2024/03/16 12:17:11;;;;;;;21.10;10.60;;;;;;;16.81;44.27;101497.85;107639;1250;97841;-65
2024/03/16 12:19:39;;;;;;;22.30;10.50;;;;;;;16.79;44.38;101497.73;107647;1251;98372;-65
2024/03/16 12:22:15;;;;;;;21.20;10.60;;;;;;;16.73;44.62;101497.80;107668;1251;111137;-64
2024/03/16 12:24:43;;;;;;;17.00;11.30;;;;;;;16.63;45.50;101499.56;107607;1251;108434;-64
2024/03/16 12:27:12;;;;;;;18.50;11.40;;;;;;;16.49;45.74;101500.92;107607;1254;108561;-66
2024/03/16 12:29:43;;;;;;;19.40;11.80;;;;;;;16.36;46.09;101500.70;107678;1251;97957;-64
2024/03/16 12:32:11;;;;;;;33.80;12.00;;;;;;;16.32;46.40;101497.23;107620;1251;97860;-65
2024/03/16 12:34:39;;;;;;;18.20;11.30;;;;;;;16.32;46.30;101495.69;107568;1251;112123;-65
2024/03/16 12:37:08;;;;;;;22.70;11.60;;;;;;;16.13;46.75;101492.70;107632;1254;107267;-64
2024/03/16 12:39:36;;;;;;;18.70;10.40;;;;;;;16.41;47.11;101493.59;107624;1251;107283;-65
2024/03/16 12:42:06;;;;;;;16.90;10.00;;;;;;;17.42;46.07;101487.20;107600;1250;97840;-65
2024/03/16 12:44:34;;;;;;;17.30;9.50;;;;;;;18.55;44.86;101482.81;107616;1250;97736;-65
2024/03/16 12:47:03;;;;;;;20.70;9.90;;;;;;;19.62;42.98;101478.13;107644;1250;111866;-65
2024/03/16 12:49:31;;;;;;;31.20;10.70;;;;;;;20.36;40.83;101477.21;107628;1251;107869;-65
2024/03/16 12:51:59;;;;;;;19.20;10.70;;;;;;;20.16;40.81;101476.52;107560;1251;108031;-63
2024/03/16 12:54:27;;;;;;;14.50;8.90;;;;;;;19.95;40.54;101477.98;107609;1251;97910;-64
2024/03/16 12:56:55;;;;;;;25.30;10.00;;;;;;;19.59;40.59;101478.33;107619;1251;97925;-64
2024/03/16 12:59:24;;;;;;;24.70;10.00;;;;;;;19.18;40.95;101477.55;107627;1251;111706;-64
2024/03/16 13:01:52;;;;;;;22.80;9.30;;;;;;;18.69;41.42;101468.90;107669;1250;107513;-64
2024/03/16 13:04:20;;;;;;;22.00;10.00;;;;;;;18.50;41.90;101467.42;107621;1251;108652;-64
2024/03/16 13:06:49;;;;;;;17.80;10.60;;;;;;;18.10;42.37;101465.81;107599;1251;97886;-64
2024/03/16 13:09:17;;;;;;;16.80;9.90;;;;;;;17.63;42.91;101466.85;107602;1251;98363;-64
2024/03/16 13:11:47;;;;;;;26.00;10.90;;;;;;;17.34;43.49;101457.59;107616;1251;111357;-66
2024/03/16 13:14:16;;;;;;;17.50;10.10;;;;;;;17.12;43.91;101460.63;107642;1251;106997;-65
2024/03/16 13:16:45;;;;;;;14.40;9.50;;;;;;;17.08;44.18;101459.59;107589;1254;107412;-66
2024/03/16 13:19:13;;;;;;;19.00;9.80;;;;;;;17.57;44.24;101449.73;107566;1251;97956;-67
2024/03/16 13:21:45;;;;;;;19.30;10.60;;;;;;;18.79;43.57;101450.52;107642;1254;97838;-65
2024/03/16 13:24:13;;;;;;;19.00;10.10;;;;;;;19.44;41.96;101446.77;107630;1251;112179;-65
2024/03/16 13:26:41;;;;;;;28.80;10.10;;;;;;;19.23;41.29;101447.52;107634;1251;108887;-63
2024/03/16 13:29:10;;;;;;;26.80;13.60;;;;;;;18.97;41.74;101448.86;107643;1251;108296;-65
2024/03/16 13:31:38;;;;;;;25.40;13.80;;;;;;;18.83;41.77;101442.94;107601;1253;97830;-64
2024/03/16 13:34:10;;;;;;;30.20;10.50;;;;;;;19.81;40.54;101440.52;107590;1254;98377;-65
2024/03/16 13:36:38;;;;;;;15.00;9.20;;;;;;;20.94;39.81;101437.80;107652;1254;110575;-66
2024/03/16 13:39:07;;;;;;;13.80;8.40;;;;;;;21.26;39.06;101434.08;107601;1251;108359;-65
2024/03/16 13:41:36;;;;;;;12.20;7.70;;;;;;;21.15;38.44;101437.04;107634;1251;108723;-65
2024/03/16 13:44:04;;;;;;;11.10;7.40;;;;;;;21.10;37.63;101431.42;107618;1251;97854;-64
2024/03/16 13:46:33;;;;;;;35.70;7.90;;;;;;;20.82;38.35;101418.33;107621;1254;97727;-65
2024/03/16 13:49:05;;;;;;;24.00;6.90;;;;;;;21.64;36.30;101414.95;107526;1254;111369;-64
2024/03/16 13:51:34;;;;;;;7.60;4.70;;;;;;;22.09;35.07;101430.40;107592;1256;108525;-64
2024/03/16 13:54:02;;;;;;;6.10;4.10;;;;;;;22.44;35.34;101424.37;107542;1254;107072;-63
2024/03/16 13:56:34;;;;;;;8.10;5.80;;;;;;;22.64;34.74;101423.48;107375;1254;98027;-63
2024/03/16 13:59:02;;;;;;;18.30;7.30;;;;;;;22.17;34.78;101418.64;107534;1254;98459;-65
2024/03/16 14:01:32;;;;;;;13.90;7.40;;;;;;;21.67;35.18;101421.04;107624;1256;111657;-65
2024/03/16 14:04:04;;;;;;;14.40;4.70;;;;;;;21.18;35.39;101423.06;107613;1254;108646;-68
2024/03/16 14:06:33;;;;;;;14.20;5.70;;;;;;;20.68;35.76;101419.66;107542;1253;106688;-65
2024/03/16 14:09:06;;;;;;;13.60;6.90;;;;;;;20.18;36.49;101419.04;107534;1253;97828;-64
2024/03/16 14:11:34;;;;;;;17.60;7.20;;;;;;;20.29;37.70;101416.15;107573;1253;97746;-63
2024/03/16 14:14:03;;;;;;;17.30;7.50;;;;;;;19.97;38.00;101411.90;107600;1252;111212;-63
2024/03/16 14:16:31;;;;;;;14.40;7.10;;;;;;;19.84;38.28;101412.47;107617;1255;108404;-65
2024/03/16 14:18:59;;;;;;;10.10;6.90;;;;;;;19.22;38.94;101415.61;107572;1254;108351;-65
2024/03/16 14:21:28;;;;;;;16.90;7.90;;;;;;;18.77;39.75;101413.34;107643;1254;97881;-66
2024/03/16 14:23:57;;;;;;;18.60;8.20;;;;;;;18.35;40.51;101410.55;107555;1255;97932;-65
2024/03/16 14:26:25;;;;;;;16.40;8.10;;;;;;;17.52;41.85;101409.83;107555;1253;111304;-67
2024/03/16 14:28:54;;;;;;;14.20;10.70;;;;;;;16.74;43.11;101415.90;107578;1254;107906;-65
2024/03/16 14:31:22;;;;;;;14.20;8.90;;;;;;;16.22;44.50;101416.46;107525;1252;107170;-64
2024/03/16 14:33:52;;;;;;;19.90;8.90;;;;;;;16.09;45.41;101414.86;107554;1254;97822;-65
2024/03/16 14:36:20;;;;;;;15.10;9.20;;;;;;;16.72;45.65;101406.81;107547;1253;97729;-65
2024/03/16 14:38:48;;;;;;;14.40;9.00;;;;;;;18.04;45.12;101404.64;107536;1252;112141;-64
2024/03/16 14:41:17;;;;;;;17.90;8.60;;;;;;;19.63;43.95;101398.90;107589;1253;108342;-65
2024/03/16 14:43:45;;;;;;;13.60;8.60;;;;;;;21.14;42.11;101392.77;107555;1254;108323;-65
2024/03/16 14:46:13;;;;;;;16.30;7.10;;;;;;;22.37;39.07;101389.78;107569;1254;97869;-65
2024/03/16 14:48:41;;;;;;;15.20;6.90;;;;;;;23.12;36.25;101387.54;107656;1253;98143;-65
2024/03/16 14:51:09;;;;;;;20.00;8.10;;;;;;;23.57;34.40;101392.73;107593;1254;112008;-65
2024/03/16 14:53:37;;;;;;;12.30;7.60;;;;;;;24.06;34.78;101393.47;107584;1253;108041;-65
2024/03/16 14:56:06;;;;;;;43.40;25.50;;;;;;;24.60;33.01;101383.11;107542;1254;108323;-64
2024/03/16 14:58:34;;;;;;;14.90;7.90;;;;;;;24.33;31.83;101387.17;107572;1254;97837;-65
2024/03/16 15:01:02;;;;;;;22.90;7.60;;;;;;;23.02;32.79;101385.20;107610;1253;97717;-66
2024/03/16 15:03:31;;;;;;;12.10;6.70;;;;;;;22.04;33.65;101387.14;107610;1254;112245;-65
2024/03/16 15:05:59;;;;;;;19.60;6.70;;;;;;;21.99;34.43;101390.48;107648;1254;108621;-64
2024/03/16 15:08:28;;;;;;;15.00;8.30;;;;;;;22.28;34.45;101386.80;107615;1252;108865;-65
2024/03/16 15:10:56;;;;;;;16.30;8.40;;;;;;;22.55;34.38;101392.21;107613;1252;97842;-65
2024/03/16 15:13:25;;;;;;;20.60;9.10;;;;;;;22.85;33.88;101388.91;107601;1254;97580;-67
2024/03/16 15:15:53;;;;;;;17.20;8.40;;;;;;;22.84;33.91;101389.98;107540;1254;112313;-67
2024/03/16 15:18:22;;;;;;;20.20;7.90;;;;;;;22.80;33.66;101389.66;107563;1254;108558;-65
2024/03/16 15:20:50;;;;;;;13.00;7.40;;;;;;;21.60;34.41;101391.42;107524;1253;107992;-64
2024/03/16 15:23:24;;;;;;;12.90;7.50;;;;;;;20.26;36.03;101393.88;107591;1256;97861;-65
2024/03/16 15:26:04;;;;;;;20.70;7.00;;;;;;;19.23;37.51;101397.32;107579;1254;98407;-65
2024/03/16 15:28:33;;;;;;;15.60;7.70;;;;;;;18.14;39.24;101396.91;107443;1254;111927;-66
2024/03/16 15:31:02;;;;;;;13.50;7.10;;;;;;;17.35;40.80;101403.67;107588;1254;107203;-64
2024/03/16 15:33:31;;;;;;;10.70;6.90;;;;;;;16.90;41.30;101410.33;107552;1254;107114;-65
2024/03/16 15:35:59;;;;;;;17.90;7.80;;;;;;;16.65;41.72;101413.52;107540;1256;98621;-65
2024/03/16 15:38:27;;;;;;;13.60;6.70;;;;;;;16.40;41.94;101416.83;107593;1253;98363;-64
2024/03/16 15:40:56;;;;;;;11.80;7.10;;;;;;;16.07;42.80;101420.91;107559;1254;112518;-65
2024/03/16 15:43:24;;;;;;;14.10;7.40;;;;;;;15.75;43.49;101420.27;107571;1254;107811;-65
2024/03/16 15:45:52;;;;;;;11.90;7.90;;;;;;;15.40;44.11;101421.95;107534;1254;107016;-64
2024/03/16 15:48:21;;;;;;;15.80;8.00;;;;;;;15.20;44.84;101427.09;107613;1254;97892;-65
2024/03/16 15:50:49;;;;;;;17.40;8.20;;;;;;;14.88;45.70;101429.34;107612;1254;98387;-65
2024/03/16 15:53:17;;;;;;;18.90;7.60;;;;;;;14.49;45.77;101432.27;107613;1251;112262;-65
2024/03/16 15:55:47;;;;;;;40.40;8.90;;;;;;;14.24;46.29;101436.79;107610;1251;107633;-65
2024/03/16 15:58:17;;;;;;;21.40;8.10;;;;;;;13.97;46.89;101437.44;107666;1251;107837;-65
2024/03/16 16:00:46;;;;;;;17.10;10.00;;;;;;;13.75;47.42;101437.67;107605;1251;97848;-66
2024/03/16 16:03:14;;;;;;;14.40;8.50;;;;;;;13.45;48.25;101442.65;107645;1251;97707;-65
2024/03/16 16:05:43;;;;;;;19.30;9.90;;;;;;;13.23;48.30;101446.29;107675;1251;112067;-64
2024/03/16 16:08:12;;;;;;;20.30;9.50;;;;;;;13.00;48.74;101449.56;107608;1253;107836;-64
2024/03/16 16:10:40;;;;;;;22.70;9.60;;;;;;;12.79;49.61;101447.05;107567;1253;108066;-65
2024/03/16 16:13:12;;;;;;;29.30;10.50;;;;;;;12.61;49.84;101452.55;107630;1252;97896;-65
2024/03/16 16:15:41;;;;;;;44.10;15.90;;;;;;;12.53;50.15;101449.42;107588;1254;97847;-62
2024/03/16 16:18:09;;;;;;;45.20;16.20;;;;;;;12.35;51.29;101450.83;107561;1253;112058;-65
2024/03/16 16:20:37;;;;;;;34.20;14.20;;;;;;;12.08;51.98;101456.73;107583;1254;108359;-68
2024/03/16 16:23:07;;;;;;;37.60;13.10;;;;;;;11.82;52.47;101462.60;107615;1253;107786;-65
2024/03/16 16:25:36;;;;;;;28.70;13.70;;;;;;;11.65;53.04;101461.86;107636;1253;98000;-64
2024/03/16 16:28:11;;;;;;;26.70;13.60;;;;;;;11.48;53.41;101465.55;107596;1254;98344;-65
2024/03/16 16:30:40;;;;;;;41.70;15.00;;;;;;;11.33;53.47;101463.84;107644;1254;110716;-64
2024/03/16 16:33:08;;;;;;;41.10;14.60;;;;;;;11.22;53.64;101471.70;107605;1251;108438;-64
2024/03/16 16:35:37;;;;;;;29.80;13.90;;;;;;;11.15;53.73;101470.16;107641;1251;108200;-64
2024/03/16 16:38:05;;;;;;;33.10;15.30;;;;;;;11.08;54.47;101478.03;107585;1251;97831;-65
2024/03/16 16:40:35;;;;;;;44.10;14.50;;;;;;;10.97;54.61;101480.93;107630;1251;97749;-66
2024/03/16 16:43:04;;;;;;;33.10;13.50;;;;;;;10.86;54.29;101481.92;107637;1251;111494;-65
2024/03/16 16:45:32;;;;;;;32.00;11.90;;;;;;;10.78;55.24;101483.11;107612;1254;109047;-64
2024/03/16 16:48:00;;;;;;;21.90;12.40;;;;;;;10.61;55.76;101482.98;107605;1254;108025;-64
2024/03/16 16:50:29;;;;;;;21.10;11.40;;;;;;;10.46;56.14;101486.42;107613;1254;97835;-63
2024/03/16 16:52:57;;;;;;;23.70;12.30;;;;;;;10.39;56.11;101488.08;107660;1254;97702;-63
2024/03/16 16:55:25;;;;;;;38.30;12.40;;;;;;;10.33;56.23;101490.23;107625;1254;111809;-65
2024/03/16 16:57:54;;;;;;;27.70;12.30;;;;;;;10.31;56.23;101489.11;107626;1254;108543;-63
2024/03/16 17:00:22;;;;;;;24.80;14.50;;;;;;;10.31;56.42;101493.63;107620;1251;108468;-63
2024/03/16 17:02:51;;;;;;;32.50;14.10;;;;;;;10.29;56.61;101492.18;107639;1251;97831;-63
2024/03/16 17:05:19;;;;;;;23.00;13.50;;;;;;;10.21;57.22;101496.90;107696;1251;97729;-64
2024/03/16 17:07:48;;;;;;;31.00;14.80;;;;;;;10.10;57.29;101496.98;107615;1251;111024;-61
2024/03/16 17:10:17;;;;;;;30.90;15.40;;;;;;;10.02;57.34;101496.70;107721;1251;108366;-62
2024/03/16 17:12:45;;;;;;;44.60;18.30;;;;;;;10.00;57.21;101501.35;107542;1253;107058;-63
2024/03/16 17:15:16;;;;;;;49.30;14.60;;;;;;;10.00;57.24;101499.19;107622;1253;98096;-62
2024/03/16 17:17:45;;;;;;;29.70;13.70;;;;;;;9.95;57.49;101499.50;107589;1254;97736;-63
2024/03/16 17:20:25;;;;;;;29.70;14.70;;;;;;;9.93;57.39;101502.55;107588;1252;111479;-66
2024/03/16 17:22:53;;;;;;;33.40;14.70;;;;;;;9.88;58.11;101504.59;107602;1254;108078;-64
2024/03/16 17:25:22;;;;;;;31.40;15.00;;;;;;;9.82;57.90;101512.30;107604;1254;108075;-66
2024/03/16 17:27:52;;;;;;;39.10;18.70;;;;;;;9.79;57.87;101512.34;107553;1251;97876;-62
2024/03/16 17:30:20;;;;;;;39.10;19.10;;;;;;;9.75;58.19;101514.25;107596;1255;97745;-64
2024/03/16 17:32:49;;;;;;;35.00;19.00;;;;;;;9.68;58.20;101518.02;107640;1252;111568;-64
2024/03/16 17:35:17;;;;;;;32.10;15.10;;;;;;;9.61;58.17;101514.05;107643;1251;107553;-64
2024/03/16 17:37:45;;;;;;;29.50;14.70;;;;;;;9.53;58.53;101515.34;107561;1251;107957;-65
2024/03/16 17:40:15;;;;;;;37.40;15.60;;;;;;;9.42;58.75;101520.42;107608;1251;97909;-64
2024/03/16 17:42:44;;;;;;;30.50;15.60;;;;;;;9.31;58.92;101517.58;107636;1254;98360;-64
2024/03/16 17:45:12;;;;;;;42.80;15.60;;;;;;;9.25;58.82;101522.90;107649;1254;111949;-63
2024/03/16 17:47:41;;;;;;;38.80;15.80;;;;;;;9.17;59.30;101524.68;107653;1256;108290;-62
2024/03/16 17:50:09;;;;;;;34.30;14.60;;;;;;;9.05;60.53;101524.80;107577;1256;107735;-63
2024/03/16 17:52:37;;;;;;;33.20;13.30;;;;;;;8.93;60.36;101526.72;107584;1252;97897;-63
2024/03/16 17:55:06;;;;;;;27.90;13.60;;;;;;;8.77;61.02;101525.09;107627;1251;98335;-63